sensor_id;sensor_type;location;lat;lon;timestamp;P1;durP1;ratioP1;P2;durP2;ratioP2
24090;SDS011;12272;52.426;17.100;2022-11-20T00:02:43;22.17;;;13.47;;
24090;SDS011;12272;52.426;17.100;2022-11-20T00:07:46;23.63;;;14.37;;
24090;SDS011;12272;52.426;17.100;2022-11-20T00:12:48;26.93;;;13.80;;
24090;SDS011;12272;52.426;17.100;2022-11-20T00:17:51;28.27;;;14.57;;
24090;SDS011;12272;52.426;17.100;2022-11-20T00:22:53;25.87;;;14.20;;
24090;SDS011;12272;52.426;17.100;2022-11-20T00:27:55;23.40;;;13.93;;
24090;SDS011;12272;52.426;17.100;2022-11-20T00:32:58;27.13;;;14.30;;
24090;SDS011;12272;52.426;17.100;2022-11-20T00:38:01;29.50;;;13.00;;
24090;SDS011;12272;52.426;17.100;2022-11-20T00:43:03;26.20;;;14.57;;
24090;SDS011;12272;52.426;17.100;2022-11-20T00:48:05;23.83;;;14.50;;
24090;SDS011;12272;52.426;17.100;2022-11-20T00:53:08;29.10;;;15.30;;
24090;SDS011;12272;52.426;17.100;2022-11-20T00:58:10;28.17;;;16.40;;
24090;SDS011;12272;52.426;17.100;2022-11-20T01:03:16;30.13;;;15.77;;
24090;SDS011;12272;52.426;17.100;2022-11-20T01:08:28;15.83;;;10.37;;
24090;SDS011;12272;52.426;17.100;2022-11-20T01:13:35;19.13;;;11.53;;
24090;SDS011;12272;52.426;17.100;2022-11-20T01:18:42;21.17;;;12.63;;
24090;SDS011;12272;52.426;17.100;2022-11-20T01:23:46;28.63;;;15.70;;
24090;SDS011;12272;52.426;17.100;2022-11-20T01:28:50;25.13;;;13.87;;
24090;SDS011;12272;52.426;17.100;2022-11-20T01:33:53;24.00;;;14.77;;
24090;SDS011;12272;52.426;17.100;2022-11-20T01:38:58;29.47;;;15.10;;
24090;SDS011;12272;52.426;17.100;2022-11-20T01:44:03;28.47;;;16.23;;
24090;SDS011;12272;52.426;17.100;2022-11-20T01:54:19;23.93;;;14.63;;
24090;SDS011;12272;52.426;17.100;2022-11-20T01:59:29;23.57;;;14.00;;
24090;SDS011;12272;52.426;17.100;2022-11-20T02:04:32;19.97;;;13.17;;
24090;SDS011;12272;52.426;17.100;2022-11-20T02:09:35;29.53;;;16.07;;
24090;SDS011;12272;52.426;17.100;2022-11-20T02:14:38;30.93;;;15.67;;
24090;SDS011;12272;52.426;17.100;2022-11-20T02:19:40;25.93;;;13.33;;
24090;SDS011;12272;52.426;17.100;2022-11-20T02:24:43;27.20;;;16.17;;
24090;SDS011;12272;52.426;17.100;2022-11-20T02:29:58;25.43;;;14.20;;
24090;SDS011;12272;52.426;17.100;2022-11-20T02:35:38;21.57;;;13.80;;
24090;SDS011;12272;52.426;17.100;2022-11-20T02:40:33;29.43;;;15.60;;
24090;SDS011;12272;52.426;17.100;2022-11-20T02:45:35;22.80;;;13.67;;
24090;SDS011;12272;52.426;17.100;2022-11-20T02:50:38;28.47;;;15.17;;
24090;SDS011;12272;52.426;17.100;2022-11-20T02:55:41;23.03;;;14.07;;
24090;SDS011;12272;52.426;17.100;2022-11-20T03:00:44;25.67;;;13.80;;
24090;SDS011;12272;52.426;17.100;2022-11-20T03:05:46;23.30;;;12.20;;
24090;SDS011;12272;52.426;17.100;2022-11-20T03:10:49;20.50;;;12.60;;
24090;SDS011;12272;52.426;17.100;2022-11-20T03:15:51;21.83;;;13.77;;
24090;SDS011;12272;52.426;17.100;2022-11-20T03:20:56;23.10;;;12.77;;
24090;SDS011;12272;52.426;17.100;2022-11-20T03:26:10;20.77;;;12.20;;
24090;SDS011;12272;52.426;17.100;2022-11-20T03:31:15;27.73;;;14.63;;
24090;SDS011;12272;52.426;17.100;2022-11-20T03:36:20;23.40;;;14.70;;
24090;SDS011;12272;52.426;17.100;2022-11-20T03:41:23;25.67;;;15.40;;
24090;SDS011;12272;52.426;17.100;2022-11-20T03:46:31;25.37;;;16.27;;
24090;SDS011;12272;52.426;17.100;2022-11-20T03:51:34;25.70;;;16.03;;
24090;SDS011;12272;52.426;17.100;2022-11-20T03:56:38;28.37;;;15.97;;
24090;SDS011;12272;52.426;17.100;2022-11-20T04:01:41;23.43;;;14.53;;
24090;SDS011;12272;52.426;17.100;2022-11-20T04:06:49;23.50;;;14.20;;
24090;SDS011;12272;52.426;17.100;2022-11-20T04:11:52;23.50;;;15.33;;
24090;SDS011;12272;52.426;17.100;2022-11-20T04:16:54;33.20;;;17.10;;
24090;SDS011;12272;52.426;17.100;2022-11-20T04:21:57;30.27;;;16.50;;
24090;SDS011;12272;52.426;17.100;2022-11-20T04:26:59;32.57;;;18.67;;
24090;SDS011;12272;52.426;17.100;2022-11-20T04:32:02;32.57;;;16.43;;
24090;SDS011;12272;52.426;17.100;2022-11-20T04:37:04;25.50;;;14.87;;
24090;SDS011;12272;52.426;17.100;2022-11-20T04:42:08;30.00;;;16.37;;
24090;SDS011;12272;52.426;17.100;2022-11-20T04:47:29;29.13;;;16.70;;
24090;SDS011;12272;52.426;17.100;2022-11-20T04:52:32;27.97;;;16.60;;
24090;SDS011;12272;52.426;17.100;2022-11-20T04:57:34;29.70;;;16.83;;
24090;SDS011;12272;52.426;17.100;2022-11-20T05:02:37;25.50;;;15.13;;
24090;SDS011;12272;52.426;17.100;2022-11-20T05:07:39;24.70;;;14.57;;
24090;SDS011;12272;52.426;17.100;2022-11-20T05:12:42;30.73;;;15.80;;
24090;SDS011;12272;52.426;17.100;2022-11-20T05:17:48;28.70;;;16.07;;
24090;SDS011;12272;52.426;17.100;2022-11-20T05:22:51;23.20;;;14.80;;
24090;SDS011;12272;52.426;17.100;2022-11-20T05:27:54;28.60;;;16.90;;
24090;SDS011;12272;52.426;17.100;2022-11-20T05:32:56;46.90;;;23.20;;
24090;SDS011;12272;52.426;17.100;2022-11-20T05:37:58;38.57;;;21.80;;
24090;SDS011;12272;52.426;17.100;2022-11-20T05:43:01;30.63;;;17.17;;
24090;SDS011;12272;52.426;17.100;2022-11-20T05:48:03;26.60;;;15.60;;
24090;SDS011;12272;52.426;17.100;2022-11-20T05:53:06;27.87;;;16.33;;
24090;SDS011;12272;52.426;17.100;2022-11-20T05:58:08;32.50;;;17.47;;
24090;SDS011;12272;52.426;17.100;2022-11-20T06:03:11;30.77;;;16.37;;
24090;SDS011;12272;52.426;17.100;2022-11-20T06:08:13;34.00;;;18.17;;
24090;SDS011;12272;52.426;17.100;2022-11-20T06:13:16;30.20;;;16.87;;
24090;SDS011;12272;52.426;17.100;2022-11-20T06:18:19;32.47;;;19.10;;
24090;SDS011;12272;52.426;17.100;2022-11-20T06:23:22;44.40;;;20.60;;
24090;SDS011;12272;52.426;17.100;2022-11-20T06:28:24;40.13;;;22.20;;
24090;SDS011;12272;52.426;17.100;2022-11-20T06:33:27;36.60;;;20.10;;
24090;SDS011;12272;52.426;17.100;2022-11-20T06:38:30;34.43;;;19.47;;
24090;SDS011;12272;52.426;17.100;2022-11-20T06:43:32;35.17;;;19.87;;
24090;SDS011;12272;52.426;17.100;2022-11-20T06:48:35;35.27;;;19.13;;
24090;SDS011;12272;52.426;17.100;2022-11-20T06:53:37;37.50;;;20.67;;
24090;SDS011;12272;52.426;17.100;2022-11-20T06:58:40;37.20;;;21.67;;
24090;SDS011;12272;52.426;17.100;2022-11-20T07:03:42;35.17;;;21.40;;
24090;SDS011;12272;52.426;17.100;2022-11-20T07:08:45;40.87;;;21.37;;
24090;SDS011;12272;52.426;17.100;2022-11-20T07:13:49;37.23;;;21.60;;
24090;SDS011;12272;52.426;17.100;2022-11-20T07:18:51;43.77;;;21.80;;
24090;SDS011;12272;52.426;17.100;2022-11-20T07:23:54;43.33;;;22.73;;
24090;SDS011;12272;52.426;17.100;2022-11-20T07:28:56;53.73;;;25.07;;
24090;SDS011;12272;52.426;17.100;2022-11-20T07:33:59;48.90;;;24.90;;
24090;SDS011;12272;52.426;17.100;2022-11-20T07:39:02;46.80;;;25.07;;
24090;SDS011;12272;52.426;17.100;2022-11-20T07:44:04;50.33;;;25.27;;
24090;SDS011;12272;52.426;17.100;2022-11-20T07:49:07;49.97;;;24.33;;
24090;SDS011;12272;52.426;17.100;2022-11-20T07:54:09;45.77;;;23.30;;
24090;SDS011;12272;52.426;17.100;2022-11-20T07:59:11;46.63;;;23.77;;
24090;SDS011;12272;52.426;17.100;2022-11-20T08:04:14;44.67;;;23.83;;
24090;SDS011;12272;52.426;17.100;2022-11-20T08:09:18;45.10;;;24.20;;
24090;SDS011;12272;52.426;17.100;2022-11-20T08:14:21;47.17;;;23.83;;
24090;SDS011;12272;52.426;17.100;2022-11-20T08:19:23;51.63;;;26.63;;
24090;SDS011;12272;52.426;17.100;2022-11-20T08:24:26;46.03;;;25.30;;
24090;SDS011;12272;52.426;17.100;2022-11-20T08:29:28;43.33;;;23.33;;
24090;SDS011;12272;52.426;17.100;2022-11-20T08:34:31;45.70;;;23.70;;
24090;SDS011;12272;52.426;17.100;2022-11-20T08:39:34;48.83;;;26.97;;
24090;SDS011;12272;52.426;17.100;2022-11-20T08:44:36;43.87;;;25.47;;
24090;SDS011;12272;52.426;17.100;2022-11-20T08:49:39;47.27;;;24.43;;
24090;SDS011;12272;52.426;17.100;2022-11-20T08:54:41;47.43;;;24.63;;
24090;SDS011;12272;52.426;17.100;2022-11-20T08:59:44;37.40;;;21.60;;
24090;SDS011;12272;52.426;17.100;2022-11-20T09:05:07;45.60;;;23.77;;
24090;SDS011;12272;52.426;17.100;2022-11-20T09:10:10;40.53;;;23.50;;
24090;SDS011;12272;52.426;17.100;2022-11-20T09:15:28;37.70;;;21.93;;
24090;SDS011;12272;52.426;17.100;2022-11-20T09:20:31;44.17;;;21.13;;
24090;SDS011;12272;52.426;17.100;2022-11-20T09:25:33;41.50;;;24.10;;
24090;SDS011;12272;52.426;17.100;2022-11-20T09:30:36;42.67;;;23.97;;
24090;SDS011;12272;52.426;17.100;2022-11-20T09:35:38;46.63;;;24.63;;
24090;SDS011;12272;52.426;17.100;2022-11-20T09:40:44;44.17;;;23.90;;
24090;SDS011;12272;52.426;17.100;2022-11-20T09:56:46;44.87;;;23.40;;
24090;SDS011;12272;52.426;17.100;2022-11-20T10:01:55;47.03;;;24.57;;
24090;SDS011;12272;52.426;17.100;2022-11-20T10:13:12;49.67;;;25.93;;
24090;SDS011;12272;52.426;17.100;2022-11-20T10:18:21;54.83;;;29.60;;
24090;SDS011;12272;52.426;17.100;2022-11-20T10:29:12;46.77;;;25.73;;
24090;SDS011;12272;52.426;17.100;2022-11-20T10:39:35;52.87;;;28.93;;
24090;SDS011;12272;52.426;17.100;2022-11-20T10:44:51;52.73;;;27.30;;
24090;SDS011;12272;52.426;17.100;2022-11-20T10:50:09;53.47;;;27.63;;
24090;SDS011;12272;52.426;17.100;2022-11-20T11:00:50;47.93;;;25.83;;
24090;SDS011;12272;52.426;17.100;2022-11-20T11:11:27;49.47;;;26.37;;
24090;SDS011;12272;52.426;17.100;2022-11-20T11:16:32;43.97;;;24.70;;
24090;SDS011;12272;52.426;17.100;2022-11-20T11:21:35;48.60;;;26.60;;
24090;SDS011;12272;52.426;17.100;2022-11-20T11:26:50;43.47;;;24.90;;
24090;SDS011;12272;52.426;17.100;2022-11-20T11:32:19;50.77;;;27.10;;
24090;SDS011;12272;52.426;17.100;2022-11-20T11:37:23;52.13;;;30.53;;
24090;SDS011;12272;52.426;17.100;2022-11-20T11:42:28;55.73;;;29.90;;
24090;SDS011;12272;52.426;17.100;2022-11-20T11:52:40;39.70;;;22.27;;
24090;SDS011;12272;52.426;17.100;2022-11-20T11:57:54;60.47;;;34.20;;
24090;SDS011;12272;52.426;17.100;2022-11-20T12:03:27;65.13;;;32.17;;
24090;SDS011;12272;52.426;17.100;2022-11-20T12:19:37;54.07;;;33.00;;
24090;SDS011;12272;52.426;17.100;2022-11-20T12:30:19;58.80;;;28.67;;
24090;SDS011;12272;52.426;17.100;2022-11-20T12:51:27;54.30;;;28.47;;
24090;SDS011;12272;52.426;17.100;2022-11-20T13:07:42;57.63;;;32.13;;
24090;SDS011;12272;52.426;17.100;2022-11-20T13:12:56;61.70;;;31.47;;
24090;SDS011;12272;52.426;17.100;2022-11-20T13:18:08;59.37;;;33.13;;
24090;SDS011;12272;52.426;17.100;2022-11-20T13:23:22;53.40;;;29.83;;
24090;SDS011;12272;52.426;17.100;2022-11-20T13:28:29;60.53;;;33.90;;
24090;SDS011;12272;52.426;17.100;2022-11-20T13:33:38;58.63;;;32.83;;
24090;SDS011;12272;52.426;17.100;2022-11-20T13:38:51;64.23;;;32.73;;
24090;SDS011;12272;52.426;17.100;2022-11-20T13:44:14;72.83;;;34.07;;
24090;SDS011;12272;52.426;17.100;2022-11-20T13:49:47;79.10;;;38.50;;
24090;SDS011;12272;52.426;17.100;2022-11-20T14:00:18;61.17;;;33.37;;
24090;SDS011;12272;52.426;17.100;2022-11-20T14:05:23;64.33;;;34.27;;
24090;SDS011;12272;52.426;17.100;2022-11-20T14:10:27;57.23;;;27.63;;
24090;SDS011;12272;52.426;17.100;2022-11-20T14:15:33;64.47;;;32.87;;
24090;SDS011;12272;52.426;17.100;2022-11-20T14:20:42;69.37;;;36.20;;
24090;SDS011;12272;52.426;17.100;2022-11-20T14:25:45;60.40;;;36.10;;
24090;SDS011;12272;52.426;17.100;2022-11-20T14:30:48;69.80;;;37.27;;
24090;SDS011;12272;52.426;17.100;2022-11-20T14:35:52;66.73;;;35.30;;
24090;SDS011;12272;52.426;17.100;2022-11-20T14:41:09;64.60;;;36.47;;
24090;SDS011;12272;52.426;17.100;2022-11-20T14:46:21;61.40;;;35.73;;
24090;SDS011;12272;52.426;17.100;2022-11-20T14:56:58;60.90;;;33.13;;
24090;SDS011;12272;52.426;17.100;2022-11-20T15:02:08;69.63;;;37.50;;
24090;SDS011;12272;52.426;17.100;2022-11-20T15:07:22;73.23;;;37.00;;
24090;SDS011;12272;52.426;17.100;2022-11-20T15:12:49;70.60;;;36.27;;
24090;SDS011;12272;52.426;17.100;2022-11-20T15:18:03;91.40;;;44.53;;
24090;SDS011;12272;52.426;17.100;2022-11-20T15:23:13;95.30;;;45.13;;
24090;SDS011;12272;52.426;17.100;2022-11-20T15:33:29;86.23;;;45.10;;
24090;SDS011;12272;52.426;17.100;2022-11-20T15:38:33;76.53;;;38.07;;
24090;SDS011;12272;52.426;17.100;2022-11-20T15:43:35;81.33;;;44.30;;
24090;SDS011;12272;52.426;17.100;2022-11-20T15:48:42;91.20;;;46.47;;
24090;SDS011;12272;52.426;17.100;2022-11-20T15:53:53;87.80;;;46.40;;
24090;SDS011;12272;52.426;17.100;2022-11-20T15:58:56;93.33;;;45.43;;
24090;SDS011;12272;52.426;17.100;2022-11-20T16:03:59;101.77;;;48.30;;
24090;SDS011;12272;52.426;17.100;2022-11-20T16:09:02;96.90;;;46.93;;
24090;SDS011;12272;52.426;17.100;2022-11-20T16:14:06;97.33;;;51.17;;
24090;SDS011;12272;52.426;17.100;2022-11-20T16:19:30;105.97;;;54.23;;
24090;SDS011;12272;52.426;17.100;2022-11-20T16:24:32;111.83;;;55.13;;
24090;SDS011;12272;52.426;17.100;2022-11-20T16:29:35;108.67;;;56.87;;
24090;SDS011;12272;52.426;17.100;2022-11-20T16:34:38;125.13;;;61.23;;
24090;SDS011;12272;52.426;17.100;2022-11-20T16:39:41;149.00;;;70.90;;
24090;SDS011;12272;52.426;17.100;2022-11-20T16:44:45;144.37;;;73.87;;
24090;SDS011;12272;52.426;17.100;2022-11-20T16:49:48;189.07;;;91.83;;
24090;SDS011;12272;52.426;17.100;2022-11-20T16:54:50;163.27;;;80.83;;
24090;SDS011;12272;52.426;17.100;2022-11-20T16:59:53;134.73;;;64.40;;
24090;SDS011;12272;52.426;17.100;2022-11-20T17:05:02;123.33;;;59.37;;
24090;SDS011;12272;52.426;17.100;2022-11-20T17:10:05;117.00;;;56.43;;
24090;SDS011;12272;52.426;17.100;2022-11-20T17:15:08;118.77;;;59.37;;
24090;SDS011;12272;52.426;17.100;2022-11-20T17:20:11;130.40;;;64.23;;
24090;SDS011;12272;52.426;17.100;2022-11-20T17:25:13;128.13;;;61.70;;
24090;SDS011;12272;52.426;17.100;2022-11-20T17:30:16;113.33;;;59.53;;
24090;SDS011;12272;52.426;17.100;2022-11-20T17:35:18;117.23;;;59.30;;
24090;SDS011;12272;52.426;17.100;2022-11-20T17:40:21;120.87;;;60.80;;
24090;SDS011;12272;52.426;17.100;2022-11-20T17:45:28;126.13;;;62.40;;
24090;SDS011;12272;52.426;17.100;2022-11-20T17:50:30;123.90;;;63.03;;
24090;SDS011;12272;52.426;17.100;2022-11-20T17:55:33;142.10;;;63.43;;
24090;SDS011;12272;52.426;17.100;2022-11-20T18:01:03;146.77;;;68.73;;
24090;SDS011;12272;52.426;17.100;2022-11-20T18:06:07;141.83;;;75.30;;
24090;SDS011;12272;52.426;17.100;2022-11-20T18:11:21;162.40;;;81.63;;
24090;SDS011;12272;52.426;17.100;2022-11-20T18:16:25;179.23;;;82.87;;
24090;SDS011;12272;52.426;17.100;2022-11-20T18:21:29;211.43;;;98.17;;
24090;SDS011;12272;52.426;17.100;2022-11-20T18:26:32;217.70;;;99.73;;
24090;SDS011;12272;52.426;17.100;2022-11-20T18:31:39;251.30;;;109.23;;
24090;SDS011;12272;52.426;17.100;2022-11-20T18:36:42;236.27;;;107.40;;
24090;SDS011;12272;52.426;17.100;2022-11-20T18:41:46;240.10;;;113.13;;
24090;SDS011;12272;52.426;17.100;2022-11-20T18:47:08;233.73;;;111.70;;
24090;SDS011;12272;52.426;17.100;2022-11-20T18:52:16;223.57;;;106.13;;
24090;SDS011;12272;52.426;17.100;2022-11-20T18:57:29;229.40;;;110.23;;
24090;SDS011;12272;52.426;17.100;2022-11-20T19:02:32;200.30;;;98.03;;
24090;SDS011;12272;52.426;17.100;2022-11-20T19:07:42;177.67;;;93.73;;
24090;SDS011;12272;52.426;17.100;2022-11-20T19:12:44;192.63;;;95.83;;
24090;SDS011;12272;52.426;17.100;2022-11-20T19:17:47;188.13;;;92.70;;
24090;SDS011;12272;52.426;17.100;2022-11-20T19:22:49;184.57;;;90.57;;
24090;SDS011;12272;52.426;17.100;2022-11-20T19:27:52;191.00;;;99.40;;
24090;SDS011;12272;52.426;17.100;2022-11-20T19:32:54;193.10;;;98.20;;
24090;SDS011;12272;52.426;17.100;2022-11-20T19:37:58;199.37;;;104.20;;
24090;SDS011;12272;52.426;17.100;2022-11-20T19:43:06;194.27;;;97.60;;
24090;SDS011;12272;52.426;17.100;2022-11-20T19:48:08;201.23;;;97.60;;
24090;SDS011;12272;52.426;17.100;2022-11-20T19:53:11;79.63;;;35.97;;
24090;SDS011;12272;52.426;17.100;2022-11-20T19:58:14;92.73;;;51.10;;
24090;SDS011;12272;52.426;17.100;2022-11-20T20:03:17;99.23;;;50.90;;
24090;SDS011;12272;52.426;17.100;2022-11-20T20:08:19;98.53;;;53.23;;
24090;SDS011;12272;52.426;17.100;2022-11-20T20:13:22;99.10;;;51.90;;
24090;SDS011;12272;52.426;17.100;2022-11-20T20:18:24;103.23;;;53.97;;
24090;SDS011;12272;52.426;17.100;2022-11-20T20:23:27;107.10;;;55.23;;
24090;SDS011;12272;52.426;17.100;2022-11-20T20:28:30;99.97;;;49.20;;
24090;SDS011;12272;52.426;17.100;2022-11-20T20:33:32;98.43;;;47.27;;
24090;SDS011;12272;52.426;17.100;2022-11-20T20:38:37;92.07;;;46.83;;
24090;SDS011;12272;52.426;17.100;2022-11-20T20:43:39;99.33;;;51.10;;
24090;SDS011;12272;52.426;17.100;2022-11-20T20:49:01;96.90;;;48.93;;
24090;SDS011;12272;52.426;17.100;2022-11-20T20:54:04;94.10;;;48.10;;
24090;SDS011;12272;52.426;17.100;2022-11-20T20:59:07;101.53;;;51.17;;
24090;SDS011;12272;52.426;17.100;2022-11-20T21:04:10;107.67;;;56.03;;
24090;SDS011;12272;52.426;17.100;2022-11-20T21:09:13;108.83;;;57.20;;
24090;SDS011;12272;52.426;17.100;2022-11-20T21:14:15;116.10;;;59.43;;
24090;SDS011;12272;52.426;17.100;2022-11-20T21:19:18;119.37;;;60.90;;
24090;SDS011;12272;52.426;17.100;2022-11-20T21:24:20;131.23;;;66.50;;
24090;SDS011;12272;52.426;17.100;2022-11-20T21:29:24;120.67;;;65.83;;
24090;SDS011;12272;52.426;17.100;2022-11-20T21:34:28;121.17;;;64.20;;
24090;SDS011;12272;52.426;17.100;2022-11-20T21:39:30;119.73;;;60.13;;
24090;SDS011;12272;52.426;17.100;2022-11-20T21:44:32;114.90;;;57.33;;
24090;SDS011;12272;52.426;17.100;2022-11-20T21:49:35;109.10;;;57.23;;
24090;SDS011;12272;52.426;17.100;2022-11-20T21:54:40;103.30;;;53.87;;
24090;SDS011;12272;52.426;17.100;2022-11-20T21:59:42;99.93;;;53.97;;
24090;SDS011;12272;52.426;17.100;2022-11-20T22:04:45;100.13;;;52.67;;
24090;SDS011;12272;52.426;17.100;2022-11-20T22:09:47;107.73;;;53.40;;
24090;SDS011;12272;52.426;17.100;2022-11-20T22:14:50;119.25;;;61.33;;
24090;SDS011;12272;52.426;17.100;2022-11-20T22:19:52;113.40;;;55.93;;
24090;SDS011;12272;52.426;17.100;2022-11-20T22:24:54;122.30;;;60.23;;
24090;SDS011;12272;52.426;17.100;2022-11-20T22:30:05;119.47;;;61.00;;
24090;SDS011;12272;52.426;17.100;2022-11-20T22:35:08;107.33;;;57.40;;
24090;SDS011;12272;52.426;17.100;2022-11-20T22:40:12;59.03;;;29.07;;
24090;SDS011;12272;52.426;17.100;2022-11-20T22:45:14;65.33;;;33.00;;
24090;SDS011;12272;52.426;17.100;2022-11-20T22:50:17;57.27;;;28.33;;
24090;SDS011;12272;52.426;17.100;2022-11-20T22:55:19;60.97;;;31.70;;
24090;SDS011;12272;52.426;17.100;2022-11-20T23:00:21;66.93;;;35.70;;
24090;SDS011;12272;52.426;17.100;2022-11-20T23:05:24;55.73;;;29.90;;
24090;SDS011;12272;52.426;17.100;2022-11-20T23:10:26;54.97;;;27.23;;
24090;SDS011;12272;52.426;17.100;2022-11-20T23:15:29;56.07;;;28.50;;
24090;SDS011;12272;52.426;17.100;2022-11-20T23:20:34;58.73;;;29.90;;
24090;SDS011;12272;52.426;17.100;2022-11-20T23:25:37;56.03;;;29.97;;
24090;SDS011;12272;52.426;17.100;2022-11-20T23:30:39;54.70;;;30.37;;
24090;SDS011;12272;52.426;17.100;2022-11-20T23:35:45;53.10;;;29.67;;
24090;SDS011;12272;52.426;17.100;2022-11-20T23:40:48;53.23;;;27.00;;
24090;SDS011;12272;52.426;17.100;2022-11-20T23:45:52;52.27;;;29.23;;
24090;SDS011;12272;52.426;17.100;2022-11-20T23:51:00;52.07;;;30.07;;
24090;SDS011;12272;52.426;17.100;2022-11-20T23:56:03;68.43;;;33.37;;
